createdAt,value
2019-02-27T00:00:51.047Z,47.55
2019-02-27T00:03:20.401Z,47.26
2019-02-27T00:05:49.619Z,46.77
2019-02-27T00:08:18.798Z,46.53
2019-02-27T00:10:48.005Z,46.31
2019-02-27T00:13:17.205Z,45.87
2019-02-27T00:15:46.393Z,46.06
2019-02-27T00:18:15.593Z,45.87
2019-02-27T00:20:44.799Z,45.94
2019-02-27T00:23:13.985Z,45.94
2019-02-27T00:25:43.191Z,45.96
2019-02-27T00:28:12.364Z,45.96
2019-02-27T00:30:41.633Z,45.88
2019-02-27T00:33:10.817Z,46.05
2019-02-27T00:35:40.027Z,46.00
2019-02-27T00:38:09.213Z,45.89
2019-02-27T00:40:39.382Z,45.53
2019-02-27T00:43:08.671Z,45.40
2019-02-27T00:45:40.137Z,45.62
2019-02-27T00:48:08.831Z,45.50
2019-02-27T00:50:39.201Z,46.17
2019-02-27T00:53:08.832Z,46.57
2019-02-27T00:55:39.367Z,47.12
2019-02-27T00:58:08.814Z,47.57
2019-02-27T01:00:39.363Z,47.77
2019-02-27T01:03:08.932Z,47.87
2019-02-27T01:05:40.976Z,47.99
2019-02-27T01:08:09.021Z,48.44
2019-02-27T01:10:38.200Z,48.91
2019-02-27T01:13:07.390Z,49.41
2019-02-27T01:15:36.568Z,49.92
2019-02-27T01:18:05.768Z,50.03
2019-02-27T01:20:34.938Z,49.97
2019-02-27T01:23:04.164Z,49.91
2019-02-27T01:25:33.334Z,49.43
2019-02-27T01:28:02.534Z,49.03
2019-02-27T01:30:31.756Z,47.87
2019-02-27T01:33:03.951Z,47.34
2019-02-27T01:35:31.849Z,46.60
2019-02-27T01:38:05.078Z,46.14
2019-02-27T01:40:31.927Z,46.03
2019-02-27T01:43:05.500Z,46.03
2019-02-27T01:45:32.053Z,46.20
2019-02-27T01:48:01.279Z,46.47
2019-02-27T01:50:32.876Z,47.11
2019-02-27T01:53:02.084Z,48.02
2019-02-27T01:55:31.266Z,48.90
2019-02-27T01:58:00.467Z,49.92
2019-02-27T02:00:29.633Z,50.86
2019-02-27T02:02:58.833Z,51.64
2019-02-27T02:05:28.018Z,52.00
2019-02-27T02:07:57.207Z,52.41
2019-02-27T02:10:28.298Z,52.88
2019-02-27T02:13:09.341Z,53.29
2019-02-27T02:16:00.881Z,53.34
2019-02-27T02:18:36.794Z,53.42
2019-02-27T02:21:21.153Z,53.31
2019-02-27T02:23:59.773Z,53.27
2019-02-27T02:26:55.235Z,53.23
2019-02-27T02:29:53.169Z,53.41
2019-02-27T02:32:28.660Z,53.61
2019-02-27T02:35:33.937Z,53.91
2019-02-27T02:38:17.554Z,53.88
2019-02-27T02:41:11.067Z,54.07
2019-02-27T02:43:55.350Z,54.29
2019-02-27T02:46:27.783Z,54.55
2019-02-27T02:49:11.831Z,54.80
2019-02-27T02:51:50.097Z,54.99
2019-02-27T02:54:41.235Z,55.13
2019-02-27T02:57:37.087Z,55.00
2019-02-27T03:00:39.097Z,54.77
2019-02-27T03:03:18.063Z,55.15
2019-02-27T03:06:13.553Z,55.29
2019-02-27T03:09:16.417Z,55.61
2019-02-27T03:12:07.265Z,55.87
2019-02-27T03:14:57.409Z,55.66
2019-02-27T03:17:46.430Z,55.88
2019-02-27T03:20:39.324Z,56.09
2019-02-27T03:23:32.854Z,56.09
2019-02-27T03:26:07.856Z,56.14
2019-02-27T03:29:06.163Z,56.07
2019-02-27T03:31:44.467Z,56.10
2019-02-27T03:34:25.476Z,56.38
2019-02-27T03:37:13.128Z,56.53
2019-02-27T03:39:55.716Z,56.31
2019-02-27T03:42:36.386Z,56.55
2019-02-27T03:45:23.939Z,56.17
2019-02-27T03:47:56.366Z,57.41
2019-02-27T03:50:34.689Z,58.24
2019-02-27T03:53:26.701Z,58.53
2019-02-27T03:56:08.760Z,58.78
2019-02-27T03:58:45.126Z,59.13
2019-02-27T04:01:34.985Z,59.04
2019-02-27T04:04:13.575Z,58.76
2019-02-27T04:07:04.878Z,58.85
2019-02-27T04:09:34.100Z,58.77
2019-02-27T04:12:03.273Z,58.81
2019-02-27T04:14:40.432Z,58.85
2019-02-27T04:17:07.104Z,58.83
2019-02-27T04:19:39.234Z,58.87
2019-02-27T04:22:06.634Z,58.81
2019-02-27T04:24:35.822Z,58.87
2019-02-27T04:27:05.104Z,58.74
2019-02-27T04:29:34.298Z,58.79
2019-02-27T04:32:03.508Z,58.69
2019-02-27T04:34:33.325Z,58.79
2019-02-27T04:37:02.961Z,58.90
2019-02-27T04:39:32.158Z,58.97
2019-02-27T04:42:01.348Z,58.82
2019-02-27T04:44:30.543Z,58.93
2019-02-27T04:46:59.741Z,59.12
2019-02-27T04:49:28.927Z,59.15
2019-02-27T04:51:58.201Z,59.02
2019-02-27T04:54:27.381Z,58.99
2019-02-27T04:56:57.614Z,59.14
2019-02-27T04:59:27.351Z,59.13
2019-02-27T05:01:56.551Z,58.98
2019-02-27T05:04:25.734Z,59.15
2019-02-27T05:06:55.006Z,59.36
2019-02-27T05:09:24.189Z,59.40
2019-02-27T05:11:53.422Z,59.27
2019-02-27T05:14:24.838Z,59.19
2019-02-27T05:16:53.491Z,59.51
2019-02-27T05:19:22.684Z,59.59
2019-02-27T05:21:52.463Z,59.49
2019-02-27T05:24:22.352Z,59.66
2019-02-27T05:26:51.546Z,59.93
2019-02-27T05:29:20.771Z,59.90
2019-02-27T05:31:50.124Z,59.89
2019-02-27T05:34:20.856Z,59.98
2019-02-27T05:36:50.080Z,60.17
2019-02-27T05:39:19.292Z,60.47
2019-02-27T05:41:48.472Z,60.50
2019-02-27T05:44:21.427Z,60.42
2019-02-27T05:46:48.567Z,60.78
2019-02-27T05:49:17.772Z,60.65
2019-02-27T05:51:46.964Z,60.56
2019-02-27T05:54:16.171Z,60.71
2019-02-27T05:56:47.155Z,61.18
2019-02-27T05:59:16.270Z,61.44
2019-02-27T06:01:45.450Z,61.54
2019-02-27T06:04:14.654Z,61.61
2019-02-27T06:06:45.662Z,61.72
2019-02-27T06:09:14.824Z,61.86
2019-02-27T06:11:44.013Z,61.86
2019-02-27T06:14:13.225Z,61.63
2019-02-27T06:16:42.401Z,61.73
2019-02-27T06:19:11.610Z,61.62
2019-02-27T06:21:40.801Z,61.59
2019-02-27T06:24:12.530Z,61.61
2019-02-27T06:26:40.878Z,61.63
2019-02-27T06:29:10.133Z,61.50
2019-02-27T06:31:39.612Z,61.60
2019-02-27T06:34:08.972Z,61.45
2019-02-27T06:36:42.041Z,61.95
2019-02-27T06:39:09.255Z,62.21
2019-02-27T06:41:39.854Z,62.23
2019-02-27T06:44:09.231Z,62.25
2019-02-27T06:46:38.429Z,62.20
2019-02-27T06:49:07.708Z,62.12
2019-02-27T06:51:37.069Z,62.01
2019-02-27T06:54:06.281Z,61.98
2019-02-27T06:56:35.467Z,62.08
2019-02-27T06:59:04.661Z,61.99
2019-02-27T07:01:33.851Z,61.70
2019-02-27T07:04:04.762Z,61.44
2019-02-27T07:06:33.949Z,60.94
2019-02-27T07:09:03.156Z,60.53
2019-02-27T07:11:32.345Z,60.21
2019-02-27T07:14:01.610Z,60.14
2019-02-27T07:16:30.892Z,59.85
2019-02-27T07:19:00.079Z,59.46
2019-02-27T07:21:32.417Z,58.79
2019-02-27T07:24:00.156Z,58.36
2019-02-27T07:26:29.332Z,57.50
2019-02-27T07:28:58.541Z,56.45
2019-02-27T07:31:27.730Z,54.87
2019-02-27T07:33:57.037Z,53.26
2019-02-27T07:36:26.216Z,50.58
2019-02-27T07:38:57.477Z,46.00
2019-02-27T07:41:26.319Z,40.08
2019-02-27T07:43:55.529Z,35.19
2019-02-27T07:46:24.712Z,31.64
2019-02-27T07:48:56.317Z,29.46
2019-02-27T07:51:24.873Z,27.96
2019-02-27T07:53:54.547Z,26.70
2019-02-27T07:56:23.757Z,25.72
2019-02-27T07:58:52.946Z,25.28
2019-02-27T08:01:23.622Z,25.16
2019-02-27T08:03:53.071Z,23.53
2019-02-27T08:06:23.607Z,21.97
2019-02-27T08:08:56.984Z,20.93
2019-02-27T08:11:23.865Z,19.61
2019-02-27T08:13:53.054Z,19.94
2019-02-27T08:16:22.698Z,19.72
2019-02-27T08:18:51.963Z,19.96
2019-02-27T08:21:21.194Z,20.88
2019-02-27T08:23:50.386Z,21.57
2019-02-27T08:26:19.607Z,21.68
2019-02-27T08:28:48.885Z,20.05
2019-02-27T08:31:18.093Z,20.58
2019-02-27T08:33:47.282Z,21.05
2019-02-27T08:36:16.516Z,21.35
2019-02-27T08:38:45.727Z,21.43
2019-02-27T08:41:14.935Z,20.25
2019-02-27T08:43:44.143Z,18.99
2019-02-27T08:46:13.385Z,17.79
2019-02-27T08:48:42.557Z,18.05
2019-02-27T08:51:11.776Z,17.83
2019-02-27T08:53:40.963Z,17.83
2019-02-27T08:56:12.296Z,17.11
2019-02-27T08:58:41.082Z,17.20
2019-02-27T09:01:10.408Z,16.88
2019-02-27T09:03:39.607Z,16.19
2019-02-27T09:06:08.906Z,15.77
2019-02-27T09:08:38.112Z,14.67
2019-02-27T09:11:07.342Z,14.69
2019-02-27T09:13:36.558Z,14.40
2019-02-27T09:16:05.767Z,14.62
2019-02-27T09:18:36.533Z,14.16
2019-02-27T09:21:05.952Z,13.85
2019-02-27T09:23:35.147Z,12.79
2019-02-27T09:26:04.372Z,12.05
2019-02-27T09:28:33.567Z,11.86
2019-02-27T09:31:04.288Z,11.56
2019-02-27T09:33:38.674Z,11.08
2019-02-27T09:36:04.634Z,10.55
2019-02-27T09:38:33.820Z,10.05
2019-02-27T09:41:03.083Z,9.81
2019-02-27T09:43:32.445Z,9.27
2019-02-27T09:46:01.674Z,8.97
2019-02-27T09:48:31.113Z,8.85
2019-02-27T09:51:01.787Z,8.67
2019-02-27T09:53:30.986Z,8.33
2019-02-27T09:56:00.190Z,7.64
2019-02-27T09:58:29.406Z,7.18
2019-02-27T10:01:13.357Z,5.64
2019-02-27T10:03:42.707Z,5.29
2019-02-27T10:06:11.904Z,5.27
2019-02-27T10:08:41.088Z,4.51
2019-02-27T10:11:10.298Z,4.47
2019-02-27T10:13:39.537Z,4.19
2019-02-27T10:16:08.742Z,4.12
2019-02-27T10:18:37.910Z,4.01
2019-02-27T10:21:09.432Z,3.65
2019-02-27T10:23:38.019Z,3.69
2019-02-27T10:26:07.209Z,3.96
2019-02-27T10:28:39.739Z,4.28
2019-02-27T10:31:07.351Z,3.41
2019-02-27T10:33:36.801Z,3.74
2019-02-27T10:36:05.992Z,2.93
2019-02-27T10:38:40.254Z,2.93
2019-02-27T10:41:06.065Z,3.15
2019-02-27T10:43:35.263Z,2.60
2019-02-27T10:46:04.461Z,3.11
2019-02-27T10:48:33.650Z,3.06
2019-02-27T10:51:02.927Z,2.87
2019-02-27T10:53:32.137Z,2.64
2019-02-27T10:56:01.321Z,2.95
2019-02-27T10:58:30.509Z,2.70
2019-02-27T11:01:01.104Z,2.46
2019-02-27T11:03:30.606Z,3.10
2019-02-27T11:05:59.807Z,2.63
2019-02-27T11:08:29.687Z,2.63
2019-02-27T11:10:58.996Z,2.59
2019-02-27T11:13:28.158Z,2.50
2019-02-27T11:15:57.373Z,2.24
2019-02-27T11:18:26.521Z,2.64
2019-02-27T11:20:59.098Z,2.60
2019-02-27T11:23:26.598Z,2.43
2019-02-27T11:25:56.955Z,2.10
2019-02-27T11:28:26.865Z,1.94
2019-02-27T11:30:56.068Z,1.98
2019-02-27T11:33:26.136Z,1.92
2019-02-27T11:35:55.373Z,1.92
2019-02-27T11:38:25.389Z,2.08
2019-02-27T11:40:54.737Z,2.00
2019-02-27T11:43:23.913Z,2.01
2019-02-27T11:45:57.517Z,2.25
2019-02-27T11:48:24.104Z,2.25
2019-02-27T11:50:53.280Z,2.21
2019-02-27T11:53:22.502Z,1.81
2019-02-27T11:55:51.670Z,1.83
2019-02-27T11:58:20.942Z,1.96
2019-02-27T12:00:50.112Z,1.79
2019-02-27T12:03:19.319Z,1.79
2019-02-27T12:05:48.574Z,1.74
2019-02-27T12:08:17.778Z,1.70
2019-02-27T12:10:46.955Z,1.63
2019-02-27T12:13:16.150Z,1.37
2019-02-27T12:15:45.343Z,1.47
2019-02-27T12:18:14.545Z,1.89
2019-02-27T12:20:43.726Z,2.00
2019-02-27T12:23:12.960Z,1.74
2019-02-27T12:25:42.147Z,1.78
2019-02-27T12:28:11.349Z,1.84
2019-02-27T12:30:40.529Z,1.92
2019-02-27T12:33:09.739Z,2.56
2019-02-27T12:35:38.934Z,2.78
2019-02-27T12:38:08.569Z,2.83
2019-02-27T12:40:37.782Z,3.42
2019-02-27T12:43:06.971Z,3.10
2019-02-27T12:45:36.149Z,3.98
2019-02-27T12:48:05.353Z,4.64
2019-02-27T12:50:34.528Z,4.96
2019-02-27T12:53:03.729Z,5.62
2019-02-27T12:55:35.507Z,7.16
2019-02-27T12:58:03.802Z,7.54
2019-02-27T13:00:34.413Z,7.14
2019-02-27T13:03:08.452Z,8.62
2019-02-27T13:05:34.511Z,9.30
2019-02-27T13:08:03.748Z,9.61
2019-02-27T13:10:34.243Z,10.16
2019-02-27T13:13:03.633Z,10.34
2019-02-27T13:15:32.846Z,10.26
2019-02-27T13:18:02.066Z,10.92
2019-02-27T13:20:32.710Z,11.88
2019-02-27T13:23:05.186Z,11.96
2019-02-27T13:25:32.800Z,12.37
2019-02-27T13:28:02.015Z,12.81
2019-02-27T13:30:31.227Z,12.25
2019-02-27T13:33:01.277Z,11.99
2019-02-27T13:35:31.245Z,12.22
2019-02-27T13:38:00.425Z,12.77
2019-02-27T13:40:35.363Z,12.91
2019-02-27T13:43:01.711Z,12.60
2019-02-27T13:45:32.117Z,13.14
2019-02-27T13:48:04.843Z,12.98
2019-02-27T13:50:32.227Z,13.06
2019-02-27T13:53:01.421Z,13.02
2019-02-27T13:55:30.631Z,13.58
2019-02-27T13:58:03.393Z,13.18
2019-02-27T14:00:31.963Z,13.22
2019-02-27T14:03:01.146Z,13.06
2019-02-27T14:05:34.902Z,13.14
2019-02-27T14:08:01.346Z,13.91
2019-02-27T14:10:34.181Z,14.06
2019-02-27T14:13:03.367Z,13.79
2019-02-27T14:15:32.577Z,14.08
2019-02-27T14:18:01.814Z,13.72
2019-02-27T14:20:31.155Z,13.78
2019-02-27T14:23:00.421Z,13.61
2019-02-27T14:25:32.911Z,14.55
2019-02-27T14:28:01.965Z,14.33
2019-02-27T14:30:48.927Z,13.81
2019-02-27T14:33:19.328Z,14.18
2019-02-27T14:35:49.033Z,14.20
2019-02-27T14:38:18.224Z,14.00
2019-02-27T14:40:47.449Z,13.98
2019-02-27T14:43:16.639Z,14.17
2019-02-27T14:45:45.849Z,13.75
2019-02-27T14:48:15.057Z,14.07
2019-02-27T14:50:44.256Z,14.96
2019-02-27T14:53:16.597Z,15.17
2019-02-27T14:55:44.402Z,15.52
2019-02-27T14:58:13.626Z,15.44
2019-02-27T15:00:43.675Z,15.12
2019-02-27T15:03:12.931Z,14.79
2019-02-27T15:05:44.725Z,14.57
2019-02-27T15:08:13.029Z,14.75
2019-02-27T15:10:42.234Z,14.58
2019-02-27T15:13:11.416Z,14.58
2019-02-27T15:15:43.190Z,14.68
2019-02-27T15:18:11.521Z,14.58
2019-02-27T15:20:41.263Z,14.72
2019-02-27T15:23:10.436Z,14.86
2019-02-27T15:25:43.202Z,14.91
2019-02-27T15:28:10.532Z,14.80
2019-02-27T15:30:39.739Z,14.72
2019-02-27T15:33:08.924Z,14.98
2019-02-27T15:35:38.316Z,15.33
2019-02-27T15:38:11.433Z,15.59
2019-02-27T15:40:38.501Z,15.62
2019-02-27T15:43:11.262Z,15.44
2019-02-27T15:45:47.513Z,15.37
2019-02-27T15:48:09.479Z,15.69
2019-02-27T15:50:38.690Z,15.70
2019-02-27T15:53:07.894Z,15.54
2019-02-27T15:55:37.937Z,15.64
2019-02-27T15:58:07.134Z,15.96
2019-02-27T16:00:36.353Z,16.41
2019-02-27T16:03:10.650Z,16.45
2019-02-27T16:05:36.487Z,16.65
2019-02-27T16:08:05.770Z,17.32
2019-02-27T16:10:34.942Z,17.32
2019-02-27T16:13:04.148Z,17.40
2019-02-27T16:15:33.329Z,17.95
2019-02-27T16:18:04.759Z,18.32
2019-02-27T16:20:33.422Z,17.95
2019-02-27T16:23:05.089Z,18.50
2019-02-27T16:25:33.530Z,19.64
2019-02-27T16:28:02.824Z,19.31
2019-02-27T16:30:33.357Z,19.66
2019-02-27T16:33:02.577Z,20.11
2019-02-27T16:35:31.762Z,20.42
2019-02-27T16:38:01.040Z,20.38
2019-02-27T16:40:30.795Z,20.29
2019-02-27T16:42:59.997Z,20.13
2019-02-27T16:45:37.344Z,21.99
2019-02-27T16:48:06.804Z,20.54
2019-02-27T16:50:35.994Z,20.86
2019-02-27T16:53:05.204Z,20.42
2019-02-27T16:55:36.960Z,21.45
2019-02-27T16:58:05.308Z,21.39
2019-02-27T17:00:37.084Z,21.82
2019-02-27T17:03:06.289Z,22.98
2019-02-27T17:05:35.485Z,20.90
2019-02-27T17:08:04.706Z,20.91
2019-02-27T17:10:35.310Z,21.48
2019-02-27T17:13:04.595Z,22.23
2019-02-27T17:15:35.987Z,23.59
2019-02-27T17:18:04.709Z,24.13
2019-02-27T17:20:36.573Z,23.66
2019-02-27T17:23:10.473Z,22.61
2019-02-27T17:25:36.681Z,23.27
2019-02-27T17:28:05.891Z,23.80
2019-02-27T17:30:37.785Z,24.85
2019-02-27T17:33:07.298Z,24.17
2019-02-27T17:35:36.497Z,23.75
2019-02-27T17:38:05.695Z,24.05
2019-02-27T17:40:37.508Z,24.26
2019-02-27T17:43:06.842Z,24.64
2019-02-27T17:45:36.085Z,24.82
2019-02-27T17:48:05.298Z,24.97
2019-02-27T17:50:34.582Z,25.38
2019-02-27T17:53:03.795Z,25.48
2019-02-27T17:55:32.992Z,25.75
2019-02-27T17:58:02.193Z,26.00
2019-02-27T18:00:42.376Z,26.28
2019-02-27T18:03:11.588Z,26.24
2019-02-27T18:05:40.825Z,25.60
2019-02-27T18:08:10.033Z,25.67
2019-02-27T18:10:39.219Z,26.45
2019-02-27T18:13:08.458Z,26.83
2019-02-27T18:15:37.722Z,26.42
2019-02-27T18:18:09.113Z,26.95
2019-02-27T18:20:37.844Z,28.29
2019-02-27T18:23:07.051Z,29.15
2019-02-27T18:25:41.034Z,29.41
2019-02-27T18:28:07.160Z,29.36
2019-02-27T18:30:36.343Z,29.35
2019-02-27T18:33:05.557Z,29.65
2019-02-27T18:35:34.743Z,30.16
2019-02-27T18:38:03.962Z,30.25
2019-02-27T18:40:33.151Z,30.17
2019-02-27T18:43:02.357Z,30.59
2019-02-27T18:45:31.579Z,30.68
2019-02-27T18:48:00.777Z,30.86
2019-02-27T18:50:29.966Z,30.54
2019-02-27T18:52:59.188Z,30.54
2019-02-27T18:55:30.657Z,30.54
2019-02-27T18:57:59.278Z,30.57
2019-02-27T19:00:29.402Z,30.74
2019-02-27T19:03:10.618Z,30.92
2019-02-27T19:05:42.024Z,31.16
2019-02-27T19:08:10.720Z,30.70
2019-02-27T19:10:42.451Z,30.48
2019-02-27T19:13:10.962Z,30.07
2019-02-27T19:15:45.419Z,29.97
2019-02-27T19:18:11.120Z,30.71
2019-02-27T19:20:45.628Z,30.64
2019-02-27T19:23:17.731Z,30.39
2019-02-27T19:25:45.709Z,30.42
2019-02-27T19:28:14.970Z,31.51
2019-02-27T19:30:44.157Z,32.17
2019-02-27T19:33:13.360Z,32.78
2019-02-27T19:35:42.558Z,33.68
2019-02-27T19:38:12.910Z,33.65
2019-02-27T19:40:42.639Z,33.43
2019-02-27T19:43:11.857Z,32.74
2019-02-27T19:45:42.297Z,33.10
2019-02-27T19:48:11.860Z,31.33
2019-02-27T19:50:45.248Z,32.08
2019-02-27T19:53:11.969Z,31.54
2019-02-27T19:55:41.248Z,31.39
2019-02-27T19:58:10.455Z,31.73
2019-02-27T20:00:48.029Z,32.01
2019-02-27T20:03:10.592Z,32.02
2019-02-27T20:05:39.780Z,31.85
2019-02-27T20:08:10.914Z,32.18
2019-02-27T20:10:40.255Z,32.28
2019-02-27T20:13:09.458Z,32.38
2019-02-27T20:15:38.646Z,32.38
2019-02-27T20:18:08.864Z,32.65
2019-02-27T20:20:40.946Z,33.01
2019-02-27T20:23:09.298Z,33.10
2019-02-27T20:25:43.168Z,33.58
2019-02-27T20:28:09.398Z,33.85
2019-02-27T20:30:38.598Z,34.09
2019-02-27T20:33:07.833Z,34.33
2019-02-27T20:35:37.030Z,34.38
2019-02-27T20:38:06.248Z,34.30
2019-02-27T20:40:35.436Z,34.56
2019-02-27T20:43:04.644Z,34.72
2019-02-27T20:45:33.824Z,34.48
2019-02-27T20:48:03.121Z,34.84
2019-02-27T20:50:55.176Z,35.32
2019-02-27T20:53:24.619Z,35.99
2019-02-27T20:55:53.807Z,36.17
2019-02-27T20:58:23.059Z,36.33
2019-02-27T21:00:52.523Z,36.67
2019-02-27T21:03:26.683Z,37.28
2019-02-27T21:05:52.803Z,37.32
2019-02-27T21:08:22.082Z,37.59
2019-02-27T21:10:54.873Z,38.00
2019-02-27T21:13:22.158Z,38.25
2019-02-27T21:15:51.350Z,38.02
2019-02-27T21:18:20.588Z,38.25
2019-02-27T21:20:50.912Z,38.68
2019-02-27T21:23:20.179Z,38.14
2019-02-27T21:25:49.926Z,38.03
2019-02-27T21:28:21.316Z,37.83
2019-02-27T21:30:52.445Z,37.85
2019-02-27T21:33:21.090Z,37.95
2019-02-27T21:35:50.282Z,37.14
2019-02-27T21:38:19.486Z,36.88
2019-02-27T21:40:48.677Z,36.78
2019-02-27T21:43:17.894Z,37.22
2019-02-27T21:45:47.093Z,38.05
2019-02-27T21:48:16.341Z,38.51
2019-02-27T21:50:45.507Z,38.87
2019-02-27T21:53:14.729Z,38.88
2019-02-27T21:55:44.685Z,39.04
2019-02-27T21:58:20.382Z,39.25
2019-02-27T22:00:48.269Z,39.39
2019-02-27T22:03:16.427Z,39.93
2019-02-27T22:05:46.987Z,40.21
2019-02-27T22:08:16.204Z,40.75
2019-02-27T22:10:45.406Z,40.31
2019-02-27T22:13:14.631Z,40.64
2019-02-27T22:15:43.825Z,41.03
2019-02-27T22:18:13.026Z,41.34
2019-02-27T22:20:42.223Z,41.31
2019-02-27T22:23:12.618Z,41.36
2019-02-27T22:25:42.100Z,41.46
2019-02-27T22:28:11.310Z,41.17
2019-02-27T22:30:40.493Z,41.01
2019-02-27T22:33:09.688Z,40.97
2019-02-27T22:35:38.937Z,41.14
2019-02-27T22:38:08.121Z,41.68
2019-02-27T22:40:38.285Z,42.08
2019-02-27T22:43:08.305Z,42.21
2019-02-27T22:45:40.504Z,42.57
2019-02-27T22:48:08.401Z,42.91
2019-02-27T22:50:38.371Z,42.70
2019-02-27T22:53:08.513Z,42.71
2019-02-27T22:55:37.730Z,42.59
2019-02-27T22:58:06.936Z,42.49
2019-02-27T23:00:53.063Z,41.96
2019-02-27T23:03:31.752Z,41.85
2019-02-27T23:06:00.948Z,41.92
2019-02-27T23:08:30.135Z,41.90
2019-02-27T23:11:02.910Z,41.81
2019-02-27T23:13:30.364Z,41.65
2019-02-27T23:15:59.585Z,41.48
2019-02-27T23:18:28.770Z,42.05
2019-02-27T23:20:58.004Z,42.45
2019-02-27T23:23:27.196Z,42.53
2019-02-27T23:25:56.408Z,42.67
2019-02-27T23:28:25.602Z,43.09
2019-02-27T23:30:54.806Z,43.70
2019-02-27T23:33:24.732Z,43.76
2019-02-27T23:35:54.082Z,44.06
2019-02-27T23:38:23.398Z,44.14
2019-02-27T23:40:52.603Z,44.52
2019-02-27T23:43:21.852Z,44.83
2019-02-27T23:45:51.063Z,45.32
2019-02-27T23:48:20.260Z,45.65
2019-02-27T23:50:49.460Z,45.88
2019-02-27T23:53:18.658Z,46.01
2019-02-27T23:55:47.865Z,46.26
2019-02-27T23:58:17.046Z,46.45
